createdAt,value
2022-12-18T00:00:51.530Z,39.70
2022-12-18T00:03:40.690Z,37.80
2022-12-18T00:06:31.894Z,39.07
2022-12-18T00:09:20.752Z,39.03
2022-12-18T00:15:06.360Z,39.60
2022-12-18T00:17:54.898Z,38.67
2022-12-18T00:20:43.833Z,37.10
2022-12-18T00:23:32.969Z,38.70
2022-12-18T00:26:23.847Z,40.23
2022-12-18T00:29:16.505Z,40.80
2022-12-18T00:32:07.197Z,38.90
2022-12-18T00:34:55.748Z,38.03
2022-12-18T00:37:44.414Z,42.17
2022-12-18T00:40:34.020Z,45.07
2022-12-18T00:43:21.679Z,39.20
2022-12-18T00:46:10.412Z,40.37
2022-12-18T00:49:01.222Z,40.80
2022-12-18T00:51:50.587Z,44.67
2022-12-18T00:54:39.337Z,42.77
2022-12-18T00:57:27.980Z,45.40
2022-12-18T01:00:17.517Z,40.27
2022-12-18T01:03:06.767Z,44.23
2022-12-18T01:05:56.879Z,44.27
2022-12-18T01:08:45.977Z,42.90
2022-12-18T01:11:34.953Z,45.97
2022-12-18T01:14:23.827Z,44.60
2022-12-18T01:17:12.419Z,43.60
2022-12-18T01:20:00.984Z,43.33
2022-12-18T01:22:51.117Z,39.10
2022-12-18T01:25:40.840Z,42.20
2022-12-18T01:28:32.178Z,42.53
2022-12-18T01:31:22.409Z,41.83
2022-12-18T01:34:12.016Z,41.70
2022-12-18T01:37:00.774Z,43.87
2022-12-18T01:39:51.054Z,39.63
2022-12-18T01:42:40.662Z,45.67
2022-12-18T01:45:32.384Z,38.97
2022-12-18T01:48:21.232Z,40.73
2022-12-18T01:51:12.385Z,40.60
2022-12-18T01:54:02.166Z,42.70
2022-12-18T01:56:52.248Z,40.20
2022-12-18T01:59:44.183Z,40.93
2022-12-18T02:02:33.644Z,39.53
2022-12-18T02:05:30.669Z,43.17
2022-12-18T02:08:24.160Z,41.40
2022-12-18T02:11:20.332Z,41.80
2022-12-18T02:14:19.327Z,38.33
2022-12-18T02:17:13.769Z,43.17
2022-12-18T02:20:11.486Z,40.00
2022-12-18T02:23:19.029Z,41.00
2022-12-18T02:26:18.708Z,41.53
2022-12-18T02:29:12.264Z,45.90
2022-12-18T02:32:02.217Z,42.20
2022-12-18T02:34:52.844Z,41.17
2022-12-18T02:37:48.255Z,41.97
2022-12-18T02:40:39.566Z,43.20
2022-12-18T02:43:30.049Z,39.87
2022-12-18T02:46:33.115Z,39.93
2022-12-18T02:49:37.922Z,43.23
2022-12-18T02:52:33.777Z,41.77
2022-12-18T02:55:37.477Z,43.17
2022-12-18T02:58:35.934Z,39.43
2022-12-18T03:01:36.841Z,39.87
2022-12-18T03:04:29.226Z,39.30
2022-12-18T03:07:24.107Z,42.73
2022-12-18T03:10:19.297Z,43.23
2022-12-18T03:13:10.980Z,45.17
2022-12-18T03:16:03.204Z,45.80
2022-12-18T03:18:56.898Z,41.13
2022-12-18T03:21:49.826Z,45.37
2022-12-18T03:24:40.662Z,46.10
2022-12-18T03:27:32.466Z,44.47
2022-12-18T03:30:23.494Z,42.97
2022-12-18T03:33:18.930Z,45.43
2022-12-18T03:36:09.763Z,48.70
2022-12-18T03:38:58.327Z,43.27
2022-12-18T03:41:54.893Z,44.07
2022-12-18T03:44:59.138Z,45.63
2022-12-18T03:48:00.924Z,47.20
2022-12-18T03:51:01.934Z,47.40
2022-12-18T03:53:58.290Z,48.90
2022-12-18T03:56:57.175Z,48.30
2022-12-18T03:59:48.195Z,40.83
2022-12-18T04:02:42.907Z,40.77
2022-12-18T04:05:34.139Z,42.97
2022-12-18T04:08:26.834Z,41.47
2022-12-18T04:11:24.529Z,44.43
2022-12-18T04:14:17.542Z,44.83
2022-12-18T04:17:07.055Z,44.57
2022-12-18T04:19:56.045Z,41.30
2022-12-18T04:22:46.513Z,45.07
2022-12-18T04:25:37.105Z,42.80
2022-12-18T04:28:32.658Z,45.00
2022-12-18T04:31:21.618Z,40.63
2022-12-18T04:34:10.557Z,43.20
2022-12-18T04:37:05.681Z,37.33
2022-12-18T04:39:54.979Z,38.23
2022-12-18T04:42:52.893Z,35.97
2022-12-18T04:45:41.844Z,36.93
2022-12-18T04:48:30.831Z,32.83
2022-12-18T04:51:24.759Z,39.00
2022-12-18T04:54:15.346Z,37.10
2022-12-18T04:57:04.092Z,36.03
2022-12-18T04:59:54.009Z,36.60
2022-12-18T05:02:42.732Z,38.97
2022-12-18T05:05:31.327Z,40.43
2022-12-18T05:08:20.600Z,39.33
2022-12-18T05:11:11.344Z,39.17
2022-12-18T05:14:03.341Z,38.87
2022-12-18T05:16:56.778Z,39.07
2022-12-18T05:19:49.257Z,35.70
2022-12-18T05:22:37.919Z,36.60
2022-12-18T05:25:26.832Z,37.13
2022-12-18T05:28:15.390Z,39.37
2022-12-18T05:31:06.249Z,39.67
2022-12-18T05:33:56.298Z,42.20
2022-12-18T05:36:44.955Z,40.47
2022-12-18T05:39:33.782Z,43.13
2022-12-18T05:42:22.405Z,44.53
2022-12-18T05:45:11.544Z,45.57
2022-12-18T05:48:00.297Z,41.23
2022-12-18T05:50:51.743Z,48.40
2022-12-18T05:53:41.574Z,44.17
2022-12-18T05:56:30.326Z,48.17
2022-12-18T05:59:18.910Z,47.33
2022-12-18T06:02:08.103Z,43.57
2022-12-18T06:04:56.962Z,53.77
2022-12-18T06:07:46.956Z,46.30
2022-12-18T06:10:35.677Z,54.23
2022-12-18T06:13:24.529Z,53.63
2022-12-18T06:16:13.274Z,51.70
2022-12-18T06:19:03.243Z,55.93
2022-12-18T06:21:52.342Z,51.80
2022-12-18T06:24:42.407Z,52.83
2022-12-18T06:27:31.488Z,50.33
2022-12-18T06:30:20.350Z,55.83
2022-12-18T06:33:08.903Z,54.67
2022-12-18T06:36:02.143Z,53.50
2022-12-18T06:38:51.091Z,55.97
2022-12-18T06:41:40.993Z,59.60
2022-12-18T06:44:29.887Z,57.90
2022-12-18T06:47:18.626Z,52.67
2022-12-18T06:50:08.149Z,62.33
2022-12-18T06:52:56.752Z,54.07
2022-12-18T06:55:45.480Z,53.83
2022-12-18T06:58:35.761Z,56.03
2022-12-18T07:01:24.860Z,53.40
2022-12-18T07:04:13.836Z,55.57
2022-12-18T07:07:02.472Z,50.97
2022-12-18T07:09:56.204Z,57.97
2022-12-18T07:12:44.793Z,57.77
2022-12-18T07:15:34.777Z,55.60
2022-12-18T07:18:23.721Z,54.90
2022-12-18T07:21:13.819Z,59.20
2022-12-18T07:24:02.461Z,53.93
2022-12-18T07:26:51.040Z,50.97
2022-12-18T07:29:39.737Z,55.13
2022-12-18T07:32:30.133Z,54.23
2022-12-18T07:35:24.733Z,52.80
2022-12-18T07:38:14.075Z,53.13
2022-12-18T07:41:03.934Z,63.50
2022-12-18T07:43:55.389Z,58.30
2022-12-18T07:46:44.039Z,56.87
2022-12-18T07:49:37.642Z,60.87
2022-12-18T07:52:26.529Z,60.60
2022-12-18T07:55:16.437Z,58.27
2022-12-18T07:58:05.426Z,57.17
2022-12-18T08:00:54.630Z,63.03
2022-12-18T08:03:43.795Z,54.20
2022-12-18T08:06:33.900Z,54.63
2022-12-18T08:09:22.460Z,55.83
2022-12-18T08:12:11.036Z,57.37
2022-12-18T08:15:00.225Z,56.23
2022-12-18T08:17:48.917Z,55.33
2022-12-18T08:20:40.828Z,52.43
2022-12-18T08:23:30.823Z,55.73
2022-12-18T08:26:19.941Z,58.10
2022-12-18T08:29:10.698Z,56.73
2022-12-18T08:31:59.345Z,52.67
2022-12-18T08:34:48.140Z,51.07
2022-12-18T08:37:36.840Z,54.73
2022-12-18T08:40:26.930Z,48.47
2022-12-18T08:43:33.267Z,51.03
2022-12-18T08:46:23.572Z,54.73
2022-12-18T08:49:13.782Z,52.73
2022-12-18T08:52:03.827Z,54.17
2022-12-18T08:54:52.472Z,53.93
2022-12-18T08:57:42.576Z,55.57
2022-12-18T09:00:33.583Z,52.10
2022-12-18T09:03:23.869Z,63.50
2022-12-18T09:06:16.869Z,54.00
2022-12-18T09:09:06.516Z,51.60
2022-12-18T09:11:55.385Z,57.20
2022-12-18T09:14:45.391Z,53.70
2022-12-18T09:17:33.998Z,54.63
2022-12-18T09:20:22.647Z,54.33
2022-12-18T09:23:11.925Z,54.10
2022-12-18T09:26:01.547Z,56.37
2022-12-18T09:28:50.443Z,60.50
2022-12-18T09:31:41.859Z,58.83
2022-12-18T09:34:30.392Z,59.87
2022-12-18T09:37:19.042Z,60.80
2022-12-18T09:40:09.234Z,60.03
2022-12-18T09:43:02.487Z,68.57
2022-12-18T09:45:56.402Z,62.47
2022-12-18T09:48:51.512Z,62.00
2022-12-18T09:51:45.875Z,62.83
2022-12-18T09:54:39.096Z,60.63
2022-12-18T09:57:28.447Z,59.37
2022-12-18T10:00:20.236Z,62.97
2022-12-18T10:03:13.419Z,65.40
2022-12-18T10:06:13.751Z,62.53
2022-12-18T10:09:07.642Z,61.70
2022-12-18T10:12:04.614Z,71.03
2022-12-18T10:15:02.220Z,73.10
2022-12-18T10:17:59.016Z,71.10
2022-12-18T10:20:50.891Z,74.00
2022-12-18T10:23:48.618Z,74.70
2022-12-18T10:26:37.381Z,65.50
2022-12-18T10:29:27.976Z,70.23
2022-12-18T10:32:19.220Z,67.80
2022-12-18T10:35:18.689Z,67.90
2022-12-18T10:38:22.775Z,68.97
2022-12-18T10:41:29.241Z,70.20
2022-12-18T10:44:21.940Z,69.03
2022-12-18T10:47:18.135Z,74.00
2022-12-18T10:50:07.256Z,65.87
2022-12-18T10:52:57.923Z,74.10
2022-12-18T10:55:49.061Z,70.77
2022-12-18T10:58:41.372Z,65.83
2022-12-18T11:01:34.465Z,68.07
2022-12-18T11:04:24.907Z,66.27
2022-12-18T11:07:13.651Z,65.30
2022-12-18T11:10:04.881Z,67.27
2022-12-18T11:12:54.277Z,70.57
2022-12-18T11:15:44.576Z,71.50
2022-12-18T11:18:35.921Z,72.20
2022-12-18T11:21:24.601Z,73.50
2022-12-18T11:24:24.535Z,70.63
2022-12-18T11:27:20.009Z,79.10
2022-12-18T11:30:23.668Z,81.20
2022-12-18T11:33:17.484Z,73.50
2022-12-18T11:36:10.251Z,74.43
2022-12-18T11:39:05.275Z,72.33
2022-12-18T11:42:13.775Z,72.67
2022-12-18T11:45:16.746Z,68.40
2022-12-18T11:48:11.386Z,67.43
2022-12-18T11:51:03.800Z,73.60
2022-12-18T11:53:54.180Z,78.93
2022-12-18T11:56:48.784Z,73.40
2022-12-18T11:59:43.530Z,71.43
2022-12-18T12:02:51.021Z,80.17
2022-12-18T12:05:51.284Z,72.20
2022-12-18T12:08:53.501Z,78.17
2022-12-18T12:11:52.379Z,67.40
2022-12-18T12:14:52.075Z,77.73
2022-12-18T12:17:47.732Z,72.57
2022-12-18T12:20:46.894Z,74.17
2022-12-18T12:23:46.502Z,71.67
2022-12-18T12:26:43.211Z,78.13
2022-12-18T12:29:44.237Z,80.47
2022-12-18T12:32:47.963Z,74.70
2022-12-18T12:35:49.049Z,70.53
2022-12-18T12:38:51.612Z,75.30
2022-12-18T12:42:01.513Z,83.47
2022-12-18T12:44:56.339Z,76.53
2022-12-18T12:47:48.230Z,76.27
2022-12-18T12:50:38.723Z,76.47
2022-12-18T12:53:32.771Z,71.00
2022-12-18T12:56:22.887Z,72.43
2022-12-18T12:59:21.480Z,71.10
2022-12-18T13:02:20.366Z,77.17
2022-12-18T13:05:19.333Z,75.83
2022-12-18T13:08:12.065Z,69.67
2022-12-18T13:11:15.370Z,76.17
2022-12-18T13:14:05.578Z,68.07
2022-12-18T13:17:19.830Z,69.77
2022-12-18T13:20:12.364Z,71.93
2022-12-18T13:23:02.468Z,69.47
2022-12-18T13:25:52.064Z,74.93
2022-12-18T13:28:55.008Z,70.67
2022-12-18T13:32:33.370Z,66.10
2022-12-18T13:35:40.523Z,64.53
2022-12-18T13:38:36.239Z,62.40
2022-12-18T13:41:27.712Z,62.63
2022-12-18T13:44:38.704Z,72.37
2022-12-18T13:47:35.405Z,61.97
2022-12-18T13:50:29.853Z,67.27
2022-12-18T13:53:27.068Z,64.37
2022-12-18T13:56:19.204Z,69.10
2022-12-18T13:59:24.584Z,73.83
2022-12-18T14:02:17.463Z,66.03
2022-12-18T14:05:23.464Z,66.63
2022-12-18T14:08:16.304Z,64.50
2022-12-18T14:11:07.961Z,66.83
2022-12-18T14:13:58.452Z,66.90
2022-12-18T14:16:49.215Z,62.43
2022-12-18T14:19:38.517Z,67.60
2022-12-18T14:22:30.695Z,65.77
2022-12-18T14:25:22.206Z,69.47
2022-12-18T14:28:16.344Z,70.53
2022-12-18T14:31:05.060Z,70.83
2022-12-18T14:33:54.510Z,70.30
2022-12-18T14:36:43.272Z,67.90
2022-12-18T14:39:33.278Z,74.60
2022-12-18T14:42:21.854Z,69.50
2022-12-18T14:45:41.846Z,66.97
2022-12-18T14:48:39.676Z,68.20
2022-12-18T14:51:29.261Z,70.27
2022-12-18T14:54:20.778Z,74.07
2022-12-18T14:57:28.363Z,75.27
2022-12-18T15:00:19.793Z,70.93
2022-12-18T15:03:10.439Z,64.20
2022-12-18T15:06:17.463Z,68.40
2022-12-18T15:09:22.825Z,72.10
2022-12-18T15:12:30.570Z,64.27
2022-12-18T15:15:47.133Z,69.23
2022-12-18T15:18:43.524Z,71.83
2022-12-18T15:21:32.782Z,68.03
2022-12-18T15:24:26.953Z,72.03
2022-12-18T15:27:38.870Z,66.00
2022-12-18T15:30:28.235Z,66.97
2022-12-18T15:33:26.798Z,68.13
2022-12-18T15:36:19.533Z,66.63
2022-12-18T15:39:15.673Z,65.10
2022-12-18T15:42:22.143Z,66.47
2022-12-18T15:45:14.244Z,71.47
2022-12-18T15:48:03.524Z,63.43
2022-12-18T15:50:53.843Z,65.13
2022-12-18T15:53:43.302Z,62.33
2022-12-18T15:56:50.208Z,57.57
2022-12-18T15:59:39.590Z,62.03
2022-12-18T16:02:30.210Z,59.90
2022-12-18T16:05:21.313Z,57.00
2022-12-18T16:08:10.037Z,58.03
2022-12-18T16:10:59.026Z,53.87
2022-12-18T16:13:47.662Z,54.30
2022-12-18T16:16:36.783Z,61.03
2022-12-18T16:19:27.063Z,59.67
2022-12-18T16:22:23.407Z,50.00
2022-12-18T16:25:23.375Z,56.43
2022-12-18T16:28:12.087Z,52.13
2022-12-18T16:31:01.363Z,56.00
2022-12-18T16:33:50.160Z,56.67
2022-12-18T16:36:40.354Z,53.13
2022-12-18T16:39:31.198Z,58.00
2022-12-18T16:42:21.680Z,53.27
2022-12-18T16:45:13.449Z,49.83
2022-12-18T16:48:02.592Z,51.10
2022-12-18T16:50:51.367Z,56.13
2022-12-18T16:53:41.971Z,52.63
2022-12-18T16:56:31.489Z,54.07
2022-12-18T16:59:21.467Z,52.43
2022-12-18T17:02:15.855Z,57.23
2022-12-18T17:05:06.682Z,52.03
2022-12-18T17:07:55.500Z,57.73
2022-12-18T17:10:45.734Z,58.13
2022-12-18T17:13:34.425Z,58.33
2022-12-18T17:16:23.919Z,56.93
2022-12-18T17:19:17.079Z,60.70
2022-12-18T17:22:06.309Z,59.80
2022-12-18T17:24:55.041Z,57.37
2022-12-18T17:27:45.393Z,62.37
2022-12-18T17:30:34.825Z,61.87
2022-12-18T17:33:25.276Z,54.93
2022-12-18T17:36:15.321Z,57.57
2022-12-18T17:39:05.702Z,54.27
2022-12-18T17:41:55.074Z,61.37
2022-12-18T17:44:46.334Z,60.47
2022-12-18T17:47:35.284Z,62.77
2022-12-18T17:50:24.868Z,62.33
2022-12-18T17:53:13.882Z,62.47
2022-12-18T17:56:05.781Z,55.70
2022-12-18T17:58:54.907Z,61.30
2022-12-18T18:01:45.742Z,64.40
2022-12-18T18:04:35.030Z,63.00
2022-12-18T18:07:23.743Z,61.60
2022-12-18T18:10:12.693Z,58.17
2022-12-18T18:13:18.808Z,49.83
2022-12-18T18:16:08.601Z,52.20
2022-12-18T18:19:01.022Z,52.77
2022-12-18T18:21:51.401Z,47.87
2022-12-18T18:24:40.782Z,53.67
2022-12-18T18:27:32.752Z,53.27
2022-12-18T18:30:25.567Z,58.53
2022-12-18T18:33:14.774Z,57.67
2022-12-18T18:36:05.245Z,59.43
2022-12-18T18:38:54.243Z,64.70
2022-12-18T18:41:47.176Z,59.83
2022-12-18T18:44:37.138Z,62.03
2022-12-18T18:47:25.932Z,68.77
2022-12-18T18:50:14.547Z,67.83
2022-12-18T18:53:04.736Z,63.43
2022-12-18T18:56:24.907Z,70.10
2022-12-18T18:59:02.058Z,66.73
2022-12-18T19:01:52.807Z,70.03
2022-12-18T19:04:45.695Z,59.73
2022-12-18T19:07:35.064Z,59.80
2022-12-18T19:10:25.402Z,59.23
2022-12-18T19:13:22.449Z,59.87
2022-12-18T19:16:11.626Z,58.60
2022-12-18T19:19:02.250Z,63.10
2022-12-18T19:21:52.137Z,59.33
2022-12-18T19:24:40.989Z,64.80
2022-12-18T19:27:31.102Z,63.53
2022-12-18T19:30:19.739Z,59.77
2022-12-18T19:33:34.482Z,62.90
2022-12-18T19:36:21.472Z,61.60
2022-12-18T19:39:12.495Z,61.07
2022-12-18T19:42:01.199Z,63.27
2022-12-18T19:44:51.201Z,58.03
2022-12-18T19:47:40.560Z,60.67
2022-12-18T19:50:29.253Z,53.93
2022-12-18T19:53:18.079Z,51.43
2022-12-18T19:56:07.646Z,48.70
2022-12-18T19:58:57.191Z,51.87
2022-12-18T20:01:47.617Z,46.47
2022-12-18T20:04:36.511Z,50.73
2022-12-18T20:07:25.099Z,53.07
2022-12-18T20:10:15.900Z,52.93
2022-12-18T20:13:07.556Z,49.60
2022-12-18T20:15:56.310Z,44.70
2022-12-18T20:18:46.369Z,47.97
2022-12-18T20:21:35.310Z,46.33
2022-12-18T20:24:23.967Z,43.03
2022-12-18T20:27:19.394Z,39.33
2022-12-18T20:30:10.037Z,45.03
2022-12-18T20:32:58.841Z,43.33
2022-12-18T20:35:48.932Z,41.13
2022-12-18T20:38:39.159Z,40.13
2022-12-18T20:41:32.797Z,43.20
2022-12-18T20:44:26.902Z,45.47
2022-12-18T20:47:16.330Z,40.40
2022-12-18T20:50:05.418Z,45.20
2022-12-18T20:52:55.611Z,41.37
2022-12-18T20:55:45.025Z,43.67
2022-12-18T20:58:33.721Z,46.53
2022-12-18T21:01:23.624Z,44.73
2022-12-18T21:04:12.447Z,44.70
2022-12-18T21:07:02.892Z,50.17
2022-12-18T21:09:53.183Z,46.50
2022-12-18T21:12:52.596Z,48.80
2022-12-18T21:15:55.426Z,49.33
2022-12-18T21:18:44.182Z,45.57
2022-12-18T21:21:35.870Z,42.60
2022-12-18T21:24:28.198Z,40.13
2022-12-18T21:27:22.604Z,47.93
2022-12-18T21:30:13.281Z,41.00
2022-12-18T21:33:02.191Z,43.23
2022-12-18T21:35:50.953Z,41.37
2022-12-18T21:38:39.810Z,47.47
2022-12-18T21:41:47.197Z,45.47
2022-12-18T21:44:41.642Z,44.37
2022-12-18T21:47:31.116Z,49.33
2022-12-18T21:50:19.857Z,44.87
2022-12-18T21:53:08.575Z,44.73
2022-12-18T21:55:59.678Z,47.97
2022-12-18T21:58:57.289Z,47.23
2022-12-18T22:01:48.046Z,45.47
2022-12-18T22:04:36.843Z,49.47
2022-12-18T22:07:25.492Z,52.30
2022-12-18T22:10:17.250Z,49.80
2022-12-18T22:13:06.807Z,45.77
2022-12-18T22:15:55.580Z,50.37
2022-12-18T22:18:45.899Z,51.57
2022-12-18T22:21:36.931Z,49.87
2022-12-18T22:24:29.194Z,54.23
2022-12-18T22:27:17.904Z,50.03
2022-12-18T22:30:06.759Z,54.53
2022-12-18T22:32:56.912Z,49.50
2022-12-18T22:35:47.103Z,57.53
2022-12-18T22:38:36.419Z,53.87
2022-12-18T22:41:25.287Z,54.33
2022-12-18T22:44:15.036Z,50.43
2022-12-18T22:47:07.458Z,49.80
2022-12-18T22:49:56.215Z,47.30
2022-12-18T22:52:46.273Z,46.27
2022-12-18T22:55:35.055Z,45.70
2022-12-18T22:58:23.659Z,46.13
2022-12-18T23:01:21.155Z,47.40
2022-12-18T23:04:10.657Z,46.73
2022-12-18T23:06:59.339Z,47.07
2022-12-18T23:09:51.060Z,47.03
2022-12-18T23:12:47.186Z,41.23
2022-12-18T23:15:36.516Z,43.40
2022-12-18T23:18:25.285Z,40.70
2022-12-18T23:21:15.603Z,38.87
2022-12-18T23:24:04.375Z,38.10
2022-12-18T23:26:54.652Z,39.97
2022-12-18T23:29:43.403Z,35.77
2022-12-18T23:32:36.408Z,37.30
2022-12-18T23:35:25.018Z,38.63
2022-12-18T23:38:13.585Z,34.73
2022-12-18T23:41:07.649Z,33.67
2022-12-18T23:43:58.522Z,31.43
2022-12-18T23:46:47.155Z,36.27
2022-12-18T23:49:35.809Z,36.13
2022-12-18T23:52:24.930Z,34.90
2022-12-18T23:55:13.632Z,33.23
2022-12-18T23:58:02.367Z,30.27
